Tropical Cyclones
[Index]
Main Index Home Page Stock Weather Photos Extreme Storms Discussion Storm News and Storm Chasing Reports Tropical Cyclones / Hurricanes / Typhoons Weather Data and Links Wild Fires / Bushfires Weather Observation Techniques Weather Picture Catalogue Tornado Pictures and Reports Stock Video Footage and DVDs for sale
Season 1983-1984 Tropical Cyclone TIM Track Map
Season 1983-1984 Summaries: [BoM-AU] [JTWC-AU] [JTWC-SIO] [JTWC-SPAC] [JTWC-SH]
<<- Previous TC | JTWC 1983-1984 Season | Next TC ->>

click for intensity scale information  Lat/long Grid: Show Hide

 Date Labels: Show Hide

Joint Typhoon Warning Centre Cyclone Data

Name: TIM

03 Jan 1984 12:00 UTC to 11 Jan 1984 00:00 UTC

    date/time    lat    long     hPa   cat  kts
1984-01-03 12   14.3   107.4                  25          
1984-01-03 18   14.0   107.3                  25          
1984-01-04 00   13.7   107.0                  25          
1984-01-04 06   13.3   106.6                  25          
1984-01-04 12   12.9   106.2                  30          
1984-01-04 18   12.4   105.8                  30          
1984-01-05 00   11.9   105.2                  30          
1984-01-05 06   11.6   104.4                  30          
1984-01-05 12   11.5   103.6                  35          
1984-01-05 18   11.4   102.9                  35          
1984-01-06 00   11.4   102.2            1     40          
1984-01-06 06   11.6   101.6            1     40          
1984-01-06 12   12.1   101.1                  35          
1984-01-06 18   12.8   101.0                  35          
1984-01-07 00   13.6   101.3            1     40          
1984-01-07 06   14.4   101.9            1     45          
1984-01-07 12   15.2   102.6            1     45          
1984-01-07 18   16.0   103.3            1     45          
1984-01-08 00   16.8   103.6            1     45          
1984-01-08 06   17.5   103.6            1     45          
1984-01-08 12   18.1   103.5            1     45          
1984-01-08 18   18.7   103.5            1     45          
1984-01-09 00   19.1   103.4            1     40          
1984-01-09 06   19.4   103.5            1     40          
1984-01-09 12   19.8   103.8                  35          
1984-01-09 18   20.1   103.9                  30          
1984-01-10 00   20.5   104.1                  25          
1984-01-10 06   20.8   104.3                  20          
1984-01-10 12   21.1   104.6                  20          
1984-01-10 18   21.0   104.8                  20          
1984-01-11 00   20.6   105.1                  20          
Winds are 1-min average.

Tropical cyclone tracks developed by Michael Bath using data from the Joint Typhoon Warning Centre Best Tracks and Google Maps.


[Australian Severe Weather index] [Copyright Notice] [Email Contacts] [Search This Site] [Privacy Policy]
Document: tropical_cyclone_tim.htm Updated: 18 September 2016